Felix-Klein-Gymnasium, Gttingen, 150m NN
Donnes mto: Actuelle Freitag, 28.02.2020 22:45
Date Horaire Temp. E. Hum. E. P.atmo. Pluie Vent Direction Direction Ensoleilleme P. de rose Temp au vent Rafales
28.02.2020 22:45 2,9 C 85 % 1007,3 hPa 0,8 mm 13,9 km/h (3 Bft) S-SO 206 0 min 0,6 C -0,6 C 37,0 km/h (5 Bft)
28.02.2020 22:30 3,6 C 80 % 1007,7 hPa 0,0 mm 16,3 km/h (3 Bft) S 188 0 min 0,5 C -0,2 C 41,8 km/h (6 Bft)
28.02.2020 22:15 3,9 C 77 % 1007,6 hPa 0,0 mm 14,1 km/h (3 Bft) SE 130 0 min 0,2 C 0,5 C 32,2 km/h (5 Bft)
28.02.2020 22:00 3,9 C 76 % 1007,7 hPa 0,0 mm 10,9 km/h (2 Bft) S-SE 158 0 min 0,1 C 1,1 C 27,4 km/h (4 Bft)
28.02.2020 21:45 3,9 C 75 % 1008,3 hPa 0,0 mm 10,5 km/h (2 Bft) S 190 0 min -0,1 C 1,2 C 32,2 km/h (5 Bft)
28.02.2020 21:30 3,9 C 75 % 1008,5 hPa 0,0 mm 10,7 km/h (2 Bft) S-SE 162 0 min -0,1 C 1,2 C 24,1 km/h (4 Bft)
28.02.2020 21:15 3,8 C 75 % 1008,5 hPa 0,0 mm 9,9 km/h (2 Bft) S-SE 149 0 min -0,2 C 1,2 C 24,1 km/h (4 Bft)
28.02.2020 21:00 3,8 C 75 % 1008,8 hPa 0,0 mm 10,5 km/h (2 Bft) S 180 0 min -0,2 C 1,1 C 25,7 km/h (4 Bft)
28.02.2020 20:45 3,9 C 74 % 1009,2 hPa 0,0 mm 11,7 km/h (2 Bft) SE 126 0 min -0,3 C 1,0 C 25,7 km/h (4 Bft)
28.02.2020 20:30 3,8 C 74 % 1009,3 hPa 0,0 mm 11,9 km/h (2 Bft) S-SE 153 0 min -0,4 C 0,8 C 24,1 km/h (4 Bft)
28.02.2020 20:15 3,9 C 73 % 1009,8 hPa 0,0 mm 8,1 km/h (2 Bft) S-SE 165 0 min -0,5 C 1,8 C 17,7 km/h (3 Bft)
28.02.2020 20:00 3,9 C 72 % 1010,1 hPa 0,0 mm 7,5 km/h (2 Bft) S-SE 147 0 min -0,7 C 2,0 C 19,3 km/h (3 Bft)
28.02.2020 19:45 3,9 C 72 % 1010,3 hPa 0,0 mm 7,4 km/h (2 Bft) S-SO 193 0 min -0,7 C 2,0 C 20,9 km/h (4 Bft)
28.02.2020 19:30 4,0 C 73 % 1010,8 hPa 0,0 mm 6,9 km/h (2 Bft) SE 146 0 min -0,4 C 2,3 C 19,3 km/h (3 Bft)
28.02.2020 19:15 4,0 C 73 % 1011,0 hPa 0,0 mm 9,9 km/h (2 Bft) S-SE 148 0 min -0,4 C 1,5 C 22,5 km/h (4 Bft)
28.02.2020 19:00 4,1 C 74 % 1011,2 hPa 0,0 mm 9,8 km/h (2 Bft) SE 144 0 min -0,1 C 1,6 C 22,5 km/h (4 Bft)
28.02.2020 18:45 4,2 C 74 % 1011,5 hPa 0,0 mm 8,2 km/h (2 Bft) SE 145 0 min -0,0 C 2,1 C 24,1 km/h (4 Bft)
28.02.2020 18:30 4,3 C 74 % 1011,6 hPa 0,0 mm 4,4 km/h (1 Bft) S 182 0 min 0,1 C 4,3 C 14,5 km/h (3 Bft)
28.02.2020 18:15 4,3 C 73 % 1012,0 hPa 0,0 mm 6,3 km/h (2 Bft) S-SE 157 0 min -0,1 C 2,8 C 17,7 km/h (3 Bft)
28.02.2020 18:00 4,6 C 72 % 1012,1 hPa 0,0 mm 3,3 km/h (1 Bft) S 190 0 min -0,0 C 4,6 C 11,3 km/h (2 Bft)
28.02.2020 17:45 4,8 C 71 % 1012,2 hPa 0,0 mm 4,4 km/h (1 Bft) SO 229 0 min -0,0 C 4,8 C 19,3 km/h (3 Bft)
28.02.2020 17:30 4,9 C 70 % 1012,5 hPa 0,0 mm 6,0 km/h (2 Bft) S 189 0 min -0,1 C 3,6 C 24,1 km/h (4 Bft)
28.02.2020 17:15 5,2 C 69 % 1012,7 hPa 0,0 mm 5,2 km/h (1 Bft) S-SE 161 0 min -0,0 C 4,2 C 22,5 km/h (4 Bft)
28.02.2020 17:00 5,3 C 68 % 1013,0 hPa 0,0 mm 5,4 km/h (1 Bft) SO 217 0 min -0,1 C 4,3 C 19,3 km/h (3 Bft)
28.02.2020 16:45 5,3 C 68 % 1013,3 hPa 0,0 mm 9,4 km/h (2 Bft) S-SO 194 0 min -0,1 C 3,1 C 27,4 km/h (4 Bft)
28.02.2020 16:30 5,3 C 67 % 1013,5 hPa 0,0 mm 10,1 km/h (2 Bft) SO 227 0 min -0,3 C 3,0 C 27,4 km/h (4 Bft)
28.02.2020 16:15 5,6 C 67 % 1013,7 hPa 0,0 mm 6,4 km/h (2 Bft) SO 222 0 min -0,0 C 4,3 C 24,1 km/h (4 Bft)
28.02.2020 16:00 5,6 C 67 % 1013,9 hPa 0,0 mm 9,2 km/h (2 Bft) SO 218 15 min -0,0 C 3,6 C 32,2 km/h (5 Bft)
28.02.2020 15:45 5,7 C 65 % 1013,9 hPa 0,0 mm 9,0 km/h (2 Bft) S-SO 202 15 min -0,4 C 3,7 C 24,1 km/h (4 Bft)
28.02.2020 15:30 5,7 C 66 % 1014,0 hPa 0,0 mm 10,5 km/h (2 Bft) SO 236 15 min -0,1 C 3,4 C 29,0 km/h (5 Bft)
28.02.2020 15:15 5,6 C 67 % 1014,1 hPa 0,0 mm 9,1 km/h (2 Bft) S-SO 205 0 min -0,0 C 3,6 C 27,4 km/h (4 Bft)
28.02.2020 15:00 5,7 C 65 % 1014,1 hPa 0,0 mm 8,3 km/h (2 Bft) SO 225 0 min -0,4 C 3,9 C 27,4 km/h (4 Bft)
28.02.2020 14:45 5,7 C 66 % 1014,1 hPa 0,0 mm 6,5 km/h (2 Bft) SO 218 0 min -0,1 C 4,4 C 20,9 km/h (4 Bft)
28.02.2020 14:30 5,7 C 65 % 1014,3 hPa 0,0 mm 10,1 km/h (2 Bft) SO 217 15 min -0,4 C 3,5 C 29,0 km/h (5 Bft)
28.02.2020 14:15 5,5 C 64 % 1014,1 hPa 0,0 mm 10,5 km/h (2 Bft) O-SO 238 0 min -0,8 C 3,2 C 29,0 km/h (5 Bft)
28.02.2020 14:00 5,5 C 66 % 1014,3 hPa 0,0 mm 6,7 km/h (2 Bft) O 272 0 min -0,3 C 4,1 C 29,0 km/h (5 Bft)
28.02.2020 13:45 5,6 C 65 % 1014,5 hPa 0,0 mm 14,6 km/h (3 Bft) O-SO 240 0 min -0,4 C 2,5 C 30,6 km/h (5 Bft)
28.02.2020 13:30 5,3 C 68 % 1014,6 hPa 0,0 mm 11,9 km/h (2 Bft) SO 235 0 min -0,1 C 2,6 C 35,4 km/h (5 Bft)
28.02.2020 13:15 5,2 C 72 % 1014,7 hPa 0,0 mm 4,0 km/h (1 Bft) SO 227 0 min 0,6 C 5,2 C 16,1 km/h (3 Bft)
28.02.2020 13:00 5,2 C 72 % 1014,7 hPa 0,0 mm 7,8 km/h (2 Bft) O-NO 292 0 min 0,6 C 3,4 C 22,5 km/h (4 Bft)
28.02.2020 12:45 5,3 C 74 % 1014,9 hPa 0,0 mm 4,5 km/h (1 Bft) O 273 0 min 1,0 C 5,3 C 20,9 km/h (4 Bft)
28.02.2020 12:30 5,2 C 72 % 1015,1 hPa 0,0 mm 13,7 km/h (3 Bft) O 273 0 min 0,6 C 2,2 C 37,0 km/h (5 Bft)
28.02.2020 12:15 5,4 C 75 % 1014,9 hPa 0,0 mm 9,8 km/h (2 Bft) O-SO 245 15 min 1,3 C 3,2 C 25,7 km/h (4 Bft)
28.02.2020 12:00 4,9 C 79 % 1014,9 hPa 0,0 mm 7,1 km/h (2 Bft) S-SE 161 0 min 1,6 C 3,3 C 27,4 km/h (4 Bft)
28.02.2020 11:45 5,0 C 79 % 1015,0 hPa 0,0 mm 12,4 km/h (3 Bft) S-SO 213 0 min 1,7 C 2,2 C 30,6 km/h (5 Bft)
28.02.2020 11:30 4,8 C 81 % 1015,0 hPa 0,0 mm 10,4 km/h (2 Bft) SO 227 15 min 1,8 C 2,3 C 29,0 km/h (5 Bft)
28.02.2020 11:15 4,7 C 81 % 1014,9 hPa 0,0 mm 5,8 km/h (2 Bft) O 261 0 min 1,7 C 3,4 C 22,5 km/h (4 Bft)
28.02.2020 11:00 4,2 C 84 % 1014,7 hPa 0,0 mm 6,8 km/h (2 Bft) NO 306 15 min 1,7 C 2,5 C 22,5 km/h (4 Bft)
28.02.2020 10:45 3,8 C 85 % 1014,7 hPa 0,0 mm 3,5 km/h (1 Bft) O-SO 238 0 min 1,5 C 3,8 C 17,7 km/h (3 Bft)
28.02.2020 10:30 3,5 C 86 % 1014,7 hPa 0,0 mm 2,6 km/h (1 Bft) O 279 0 min 1,4 C 3,5 C 17,7 km/h (3 Bft)
28.02.2020 10:15 3,3 C 87 % 1014,4 hPa 0,0 mm 0,0 km/h (0 Bft) O 262 0 min 1,3 C 3,3 C 0,0 km/h (0 Bft)
28.02.2020 10:00 3,1 C 87 % 1014,2 hPa 0,0 mm 0,8 km/h (0 Bft) O-SO 238 0 min 1,2 C 3,1 C 8,0 km/h (2 Bft)
28.02.2020 09:45 2,9 C 87 % 1014,1 hPa 0,0 mm 0,6 km/h (0 Bft) SO 234 0 min 1,0 C 2,9 C 6,4 km/h (2 Bft)
28.02.2020 09:30 2,8 C 87 % 1014,1 hPa 0,0 mm 0,8 km/h (0 Bft) O-SO 253 0 min 0,9 C 2,8 C 6,4 km/h (2 Bft)
28.02.2020 09:15 2,8 C 87 % 1014,0 hPa 0,0 mm 1,3 km/h (1 Bft) SO 226 0 min 0,9 C 2,8 C 8,0 km/h (2 Bft)
28.02.2020 09:00 2,7 C 87 % 1013,7 hPa 0,0 mm 2,0 km/h (1 Bft) S 175 0 min 0,8 C 2,7 C 16,1 km/h (3 Bft)
28.02.2020 08:45 2,7 C 87 % 1013,6 hPa 0,0 mm 1,5 km/h (1 Bft) O-SO 258 0 min 0,8 C 2,7 C 12,9 km/h (3 Bft)
28.02.2020 08:30 2,7 C 87 % 1013,5 hPa 0,0 mm 6,7 km/h (2 Bft) O-SO 244 0 min 0,8 C 0,8 C 24,1 km/h (4 Bft)
28.02.2020 08:15 2,6 C 87 % 1013,3 hPa 0,0 mm 8,8 km/h (2 Bft) O 279 0 min 0,7 C 0,1 C 17,7 km/h (3 Bft)
28.02.2020 08:00 2,6 C 87 % 1013,1 hPa 0,0 mm 7,9 km/h (2 Bft) NO 306 0 min 0,7 C 0,3 C 20,9 km/h (4 Bft)
28.02.2020 07:45 2,5 C 87 % 1012,9 hPa 0,0 mm 3,8 km/h (1 Bft) NO 304 0 min 0,6 C 2,5 C 14,5 km/h (3 Bft)
28.02.2020 07:30 2,5 C 87 % 1012,5 hPa 0,0 mm 8,3 km/h (2 Bft) O-NO 295 0 min 0,6 C 0,1 C 17,7 km/h (3 Bft)
28.02.2020 07:15 2,3 C 87 % 1012,3 hPa 0,0 mm 9,9 km/h (2 Bft) O-NO 293 0 min 0,4 C -0,5 C 19,3 km/h (3 Bft)
28.02.2020 07:00 2,4 C 87 % 1012,0 hPa 0,0 mm 8,4 km/h (2 Bft) O-NO 288 0 min 0,5 C -0,0 C 20,9 km/h (4 Bft)
28.02.2020 06:45 2,4 C 87 % 1011,9 hPa 0,0 mm 8,1 km/h (2 Bft) O-NO 302 0 min 0,5 C 0,1 C 22,5 km/h (4 Bft)
28.02.2020 06:30 2,3 C 87 % 1011,6 hPa 0,0 mm 10,3 km/h (2 Bft) O-NO 300 0 min 0,4 C -0,6 C 27,4 km/h (4 Bft)
28.02.2020 06:15 2,3 C 88 % 1011,2 hPa 0,0 mm 9,7 km/h (2 Bft) O-NO 290 0 min 0,5 C -0,5 C 24,1 km/h (4 Bft)
28.02.2020 06:00 2,2 C 89 % 1010,9 hPa 0,0 mm 10,3 km/h (2 Bft) O-NO 285 0 min 0,6 C -0,8 C 24,1 km/h (4 Bft)
28.02.2020 05:45 2,2 C 89 % 1010,7 hPa 0,0 mm 6,6 km/h (2 Bft) O-NO 303 0 min 0,6 C 0,3 C 17,7 km/h (3 Bft)
28.02.2020 05:30 2,1 C 89 % 1010,5 hPa 0,0 mm 6,4 km/h (2 Bft) NO 310 0 min 0,5 C 0,2 C 16,1 km/h (3 Bft)
28.02.2020 05:15 2,1 C 90 % 1010,2 hPa 0,0 mm 10,5 km/h (2 Bft) NO 306 0 min 0,6 C -0,9 C 25,7 km/h (4 Bft)
28.02.2020 05:00 2,0 C 91 % 1010,0 hPa 0,0 mm 9,4 km/h (2 Bft) O-NO 294 0 min 0,7 C -0,8 C 24,1 km/h (4 Bft)
28.02.2020 04:45 1,9 C 91 % 1009,7 hPa 0,3 mm 6,1 km/h (2 Bft) O-NO 297 0 min 0,6 C 0,1 C 16,1 km/h (3 Bft)
28.02.2020 04:30 2,0 C 90 % 1009,3 hPa 0,0 mm 9,1 km/h (2 Bft) NO 324 0 min 0,5 C -0,7 C 22,5 km/h (4 Bft)
28.02.2020 04:15 1,8 C 90 % 1009,0 hPa 0,0 mm 13,6 km/h (3 Bft) NO 304 0 min 0,3 C -1,9 C 29,0 km/h (5 Bft)
28.02.2020 04:00 1,7 C 91 % 1008,6 hPa 0,0 mm 12,3 km/h (3 Bft) O-NO 297 0 min 0,4 C -1,8 C 27,4 km/h (4 Bft)
28.02.2020 03:45 1,7 C 92 % 1008,3 hPa 0,0 mm 11,7 km/h (2 Bft) NO 305 0 min 0,5 C -1,7 C 32,2 km/h (5 Bft)
28.02.2020 03:30 1,6 C 92 % 1008,3 hPa 0,0 mm 13,0 km/h (3 Bft) NO 311 0 min 0,4 C -2,1 C 27,4 km/h (4 Bft)
28.02.2020 03:15 1,4 C 92 % 1007,8 hPa 0,0 mm 11,0 km/h (2 Bft) O-NO 291 0 min 0,2 C -1,9 C 24,1 km/h (4 Bft)
28.02.2020 03:00 1,3 C 92 % 1007,5 hPa 0,0 mm 11,9 km/h (2 Bft) O-NO 294 0 min 0,1 C -2,2 C 24,1 km/h (4 Bft)
28.02.2020 02:45 1,3 C 93 % 1007,2 hPa 0,0 mm 10,2 km/h (2 Bft) O-NO 288 0 min 0,3 C -1,8 C 27,4 km/h (4 Bft)
28.02.2020 02:30 1,2 C 93 % 1006,9 hPa 0,0 mm 6,3 km/h (2 Bft) O-NO 284 0 min 0,2 C -0,8 C 20,9 km/h (4 Bft)
28.02.2020 02:15 1,2 C 94 % 1006,8 hPa 0,0 mm 5,9 km/h (2 Bft) O 259 0 min 0,3 C -0,6 C 20,9 km/h (4 Bft)
28.02.2020 02:00 1,2 C 94 % 1006,3 hPa 0,0 mm 1,0 km/h (0 Bft) NO 313 0 min 0,3 C 1,2 C 8,0 km/h (2 Bft)
28.02.2020 01:45 1,2 C 94 % 1006,0 hPa 0,0 mm 0,7 km/h (0 Bft) O-NO 284 0 min 0,3 C 1,2 C 11,3 km/h (2 Bft)
28.02.2020 01:30 1,2 C 95 % 1005,5 hPa 0,0 mm 0,0 km/h (0 Bft) O-NO 295 0 min 0,5 C 1,2 C 0,0 km/h (0 Bft)
28.02.2020 01:15 1,2 C 95 % 1005,0 hPa 0,0 mm 0,2 km/h (0 Bft) O-NO 296 0 min 0,5 C 1,2 C 6,4 km/h (2 Bft)
28.02.2020 01:00 1,2 C 95 % 1004,7 hPa 0,0 mm 0,0 km/h (0 Bft) O-NO 294 0 min 0,5 C 1,2 C 0,0 km/h (0 Bft)
28.02.2020 00:45 1,2 C 95 % 1004,3 hPa 0,0 mm 0,1 km/h (0 Bft) O-NO 285 0 min 0,5 C 1,2 C 4,8 km/h (1 Bft)
28.02.2020 00:30 1,2 C 95 % 1003,9 hPa 0,0 mm 0,0 km/h (0 Bft) O-NO 299 0 min 0,5 C 1,2 C 3,2 km/h (1 Bft)
28.02.2020 00:15 1,2 C 95 % 1003,6 hPa 0,0 mm 0,0 km/h (0 Bft) O-NO 298 0 min 0,5 C 1,2 C 0,0 km/h (0 Bft)
28.02.2020 00:00 1,2 C 95 % 1003,1 hPa 0,0 mm 0,0 km/h (0 Bft) O-NO 302 0 min 0,5 C 1,2 C 0,0 km/h (0 Bft)
_ Min-Heure 00:00 14:15 00:00 - 00:00 - - - 14:15 03:00 00:00
Minimum _ 1,2 C 64 % 1003,1 hPa - 0,0 km/h (0 Bft) - - - -0,8 C -2,2 C 0,0 km/h (0 Bft)
_ Max-Heure 14:30 00:00 12:30 22:45 22:30 - - 11:00 11:30 12:45 22:30
Maximum _ 5,7 C 95 % 1015,1 hPa 0,8 mm 16,3 km/h
S (3 Bft)
- - 15 min 1,8 C 5,3 C 41,8 km/h
S (6 Bft)
Moyenne _ 3,4 C 81 % 1011,1 hPa #1,0 mm 7,4 km/h (2 Bft) O-NO - #1:45 h 0,4 C 1,7 C 21,0 km/h (4 Bft)